sensor_id;sensor_type;location;lat;lon;timestamp;pressure;altitude;pressure_sealevel;temperature;humidity
39275;BME280;24980;48.874;2.332;2023-02-19T00:02:10;102122.39;;;23.49;44.78
39275;BME280;24980;48.874;2.332;2023-02-19T00:04:41;102124.27;;;23.50;44.78
39275;BME280;24980;48.874;2.332;2023-02-19T00:07:13;102132.28;;;23.51;44.79
39275;BME280;24980;48.874;2.332;2023-02-19T00:09:43;102133.82;;;23.53;44.78
39275;BME280;24980;48.874;2.332;2023-02-19T00:12:13;102132.11;;;23.54;44.77
39275;BME280;24980;48.874;2.332;2023-02-19T00:14:44;102127.14;;;23.56;44.77
39275;BME280;24980;48.874;2.332;2023-02-19T00:17:15;102132.38;;;23.58;44.80
39275;BME280;24980;48.874;2.332;2023-02-19T00:19:46;102133.23;;;23.59;44.83
39275;BME280;24980;48.874;2.332;2023-02-19T00:22:15;102133.30;;;23.61;44.88
39275;BME280;24980;48.874;2.332;2023-02-19T00:24:47;102121.46;;;23.62;44.92
39275;BME280;24980;48.874;2.332;2023-02-19T00:27:16;102128.13;;;23.63;44.97
39275;BME280;24980;48.874;2.332;2023-02-19T00:29:47;102127.89;;;23.65;45.02
39275;BME280;24980;48.874;2.332;2023-02-19T00:32:17;102120.70;;;23.65;45.06
39275;BME280;24980;48.874;2.332;2023-02-19T00:34:49;102122.49;;;23.66;45.12
39275;BME280;24980;48.874;2.332;2023-02-19T00:37:19;102123.65;;;23.67;45.18
39275;BME280;24980;48.874;2.332;2023-02-19T00:39:49;102125.44;;;23.68;45.22
39275;BME280;24980;48.874;2.332;2023-02-19T00:42:20;102120.88;;;23.69;45.26
39275;BME280;24980;48.874;2.332;2023-02-19T00:44:51;102123.73;;;23.71;45.29
39275;BME280;24980;48.874;2.332;2023-02-19T00:47:21;102108.25;;;23.71;45.33
39275;BME280;24980;48.874;2.332;2023-02-19T00:49:56;102101.66;;;23.72;45.37
39275;BME280;24980;48.874;2.332;2023-02-19T00:52:22;102103.24;;;23.73;45.43
39275;BME280;24980;48.874;2.332;2023-02-19T00:54:52;102106.39;;;23.75;45.50
39275;BME280;24980;48.874;2.332;2023-02-19T00:57:23;102106.12;;;23.77;45.58
39275;BME280;24980;48.874;2.332;2023-02-19T00:59:53;102105.55;;;23.79;45.64
39275;BME280;24980;48.874;2.332;2023-02-19T01:02:24;102090.38;;;23.81;45.66
39275;BME280;24980;48.874;2.332;2023-02-19T01:04:54;102089.44;;;23.80;45.67
39275;BME280;24980;48.874;2.332;2023-02-19T01:07:25;102094.43;;;23.79;45.67
39275;BME280;24980;48.874;2.332;2023-02-19T01:09:55;102092.09;;;23.79;45.66
39275;BME280;24980;48.874;2.332;2023-02-19T01:12:25;102100.62;;;23.78;45.65
39275;BME280;24980;48.874;2.332;2023-02-19T01:14:56;102103.94;;;23.78;45.65
39275;BME280;24980;48.874;2.332;2023-02-19T01:17:26;102104.44;;;23.77;45.64
39275;BME280;24980;48.874;2.332;2023-02-19T01:19:57;102099.02;;;23.77;45.62
39275;BME280;24980;48.874;2.332;2023-02-19T01:22:28;102103.08;;;23.77;45.61
39275;BME280;24980;48.874;2.332;2023-02-19T01:24:58;102098.50;;;23.76;45.60
39275;BME280;24980;48.874;2.332;2023-02-19T01:27:29;102099.20;;;23.76;45.60
39275;BME280;24980;48.874;2.332;2023-02-19T01:30:00;102098.86;;;23.75;45.58
39275;BME280;24980;48.874;2.332;2023-02-19T01:32:30;102104.62;;;23.76;45.57
39275;BME280;24980;48.874;2.332;2023-02-19T01:35:01;102098.09;;;23.75;45.56
39275;BME280;24980;48.874;2.332;2023-02-19T01:37:31;102102.90;;;23.76;45.53
39275;BME280;24980;48.874;2.332;2023-02-19T01:40:02;102106.62;;;23.77;45.52
39275;BME280;24980;48.874;2.332;2023-02-19T01:42:32;102110.19;;;23.77;45.51
39275;BME280;24980;48.874;2.332;2023-02-19T01:45:28;102116.12;;;23.78;45.51
39275;BME280;24980;48.874;2.332;2023-02-19T01:47:34;102112.55;;;23.79;45.51
39275;BME280;24980;48.874;2.332;2023-02-19T01:50:05;102108.08;;;23.80;45.53
39275;BME280;24980;48.874;2.332;2023-02-19T01:52:36;102111.97;;;23.81;45.55
39275;BME280;24980;48.874;2.332;2023-02-19T01:55:07;102114.61;;;23.82;45.60
39275;BME280;24980;48.874;2.332;2023-02-19T01:57:39;102108.85;;;23.82;45.63
39275;BME280;24980;48.874;2.332;2023-02-19T02:00:12;102111.02;;;23.83;45.69
39275;BME280;24980;48.874;2.332;2023-02-19T02:02:40;102113.05;;;23.83;45.73
39275;BME280;24980;48.874;2.332;2023-02-19T02:07:41;102111.72;;;23.85;45.81
39275;BME280;24980;48.874;2.332;2023-02-19T02:10:09;102110.12;;;23.85;45.86
39275;BME280;24980;48.874;2.332;2023-02-19T02:12:39;102103.56;;;23.86;45.92
39275;BME280;24980;48.874;2.332;2023-02-19T02:15:10;102101.53;;;23.86;45.96
39275;BME280;24980;48.874;2.332;2023-02-19T02:23:14;102111.72;;;23.88;46.06
39275;BME280;24980;48.874;2.332;2023-02-19T02:25:30;102107.65;;;23.88;46.09
39275;BME280;24980;48.874;2.332;2023-02-19T02:27:55;102106.81;;;23.88;46.09
39275;BME280;24980;48.874;2.332;2023-02-19T02:30:26;102103.56;;;23.89;46.09
39275;BME280;24980;48.874;2.332;2023-02-19T02:35:15;102104.93;;;23.90;46.09
39275;BME280;24980;48.874;2.332;2023-02-19T02:37:49;102111.03;;;23.91;46.10
39275;BME280;24980;48.874;2.332;2023-02-19T02:40:17;102106.97;;;23.91;46.11
39275;BME280;24980;48.874;2.332;2023-02-19T02:42:51;102106.36;;;23.93;46.11
39275;BME280;24980;48.874;2.332;2023-02-19T02:45:24;102110.09;;;23.94;46.10
39275;BME280;24980;48.874;2.332;2023-02-19T02:47:52;102103.14;;;23.94;46.10
39275;BME280;24980;48.874;2.332;2023-02-19T02:50:24;102106.53;;;23.94;46.10
39275;BME280;24980;48.874;2.332;2023-02-19T02:52:50;102106.80;;;23.94;46.10
39275;BME280;24980;48.874;2.332;2023-02-19T02:55:18;102101.95;;;23.96;46.11
39275;BME280;24980;48.874;2.332;2023-02-19T02:57:50;102102.37;;;23.95;46.10
39275;BME280;24980;48.874;2.332;2023-02-19T03:00:21;102105.17;;;23.97;46.11
39275;BME280;24980;48.874;2.332;2023-02-19T03:02:51;102104.58;;;23.97;46.11
39275;BME280;24980;48.874;2.332;2023-02-19T03:05:23;102109.76;;;23.98;46.11
39275;BME280;24980;48.874;2.332;2023-02-19T03:07:55;102110.32;;;23.99;46.10
39275;BME280;24980;48.874;2.332;2023-02-19T03:10:27;102115.41;;;23.99;46.09
39275;BME280;24980;48.874;2.332;2023-02-19T03:12:54;102114.98;;;24.00;46.08
39275;BME280;24980;48.874;2.332;2023-02-19T03:15:23;102115.41;;;24.00;46.06
39275;BME280;24980;48.874;2.332;2023-02-19T03:17:57;102111.94;;;24.00;46.08
39275;BME280;24980;48.874;2.332;2023-02-19T03:20:23;102115.42;;;24.00;46.07
39275;BME280;24980;48.874;2.332;2023-02-19T03:22:55;102111.27;;;24.01;46.05
39275;BME280;24980;48.874;2.332;2023-02-19T03:25:27;102100.00;;;24.00;46.04
39275;BME280;24980;48.874;2.332;2023-02-19T03:27:59;102099.75;;;24.00;46.04
39275;BME280;24980;48.874;2.332;2023-02-19T03:30:36;102096.03;;;24.01;46.03
39275;BME280;24980;48.874;2.332;2023-02-19T03:33:06;102098.40;;;24.01;46.04
39275;BME280;24980;48.874;2.332;2023-02-19T03:35:34;102103.22;;;24.00;46.04
39275;BME280;24980;48.874;2.332;2023-02-19T03:40:30;102103.12;;;24.00;46.04
39275;BME280;24980;48.874;2.332;2023-02-19T03:43:17;102101.10;;;24.00;46.04
39275;BME280;24980;48.874;2.332;2023-02-19T03:45:59;102105.76;;;24.00;46.04
39275;BME280;24980;48.874;2.332;2023-02-19T03:48:17;102106.34;;;23.99;46.04
39275;BME280;24980;48.874;2.332;2023-02-19T03:50:40;102106.09;;;23.99;46.04
39275;BME280;24980;48.874;2.332;2023-02-19T03:58:20;102112.95;;;24.00;46.02
39275;BME280;24980;48.874;2.332;2023-02-19T04:00:45;102117.70;;;24.00;46.01
39275;BME280;24980;48.874;2.332;2023-02-19T04:03:16;102117.27;;;23.99;46.01
39275;BME280;24980;48.874;2.332;2023-02-19T04:05:38;102117.86;;;23.99;46.01
39275;BME280;24980;48.874;2.332;2023-02-19T04:08:14;102110.77;;;23.98;46.02
39275;BME280;24980;48.874;2.332;2023-02-19T04:10:40;102119.91;;;23.97;46.00
39275;BME280;24980;48.874;2.332;2023-02-19T04:13:09;102123.05;;;23.97;46.00
39275;BME280;24980;48.874;2.332;2023-02-19T04:15:41;102121.44;;;23.97;46.00
39275;BME280;24980;48.874;2.332;2023-02-19T04:18:10;102123.47;;;23.97;45.99
39275;BME280;24980;48.874;2.332;2023-02-19T04:20:43;102124.57;;;23.97;45.98
39275;BME280;24980;48.874;2.332;2023-02-19T04:23:08;102124.83;;;23.98;46.00
39275;BME280;24980;48.874;2.332;2023-02-19T04:25:41;102134.31;;;23.98;45.98
39275;BME280;24980;48.874;2.332;2023-02-19T04:28:08;102136.42;;;23.97;45.98
39275;BME280;24980;48.874;2.332;2023-02-19T04:30:38;102139.06;;;23.98;45.97
39275;BME280;24980;48.874;2.332;2023-02-19T04:33:10;102136.94;;;23.97;45.97
39275;BME280;24980;48.874;2.332;2023-02-19T04:35:39;102134.14;;;23.97;45.96
39275;BME280;24980;48.874;2.332;2023-02-19T04:38:10;102144.38;;;23.97;45.95
39275;BME280;24980;48.874;2.332;2023-02-19T04:40:40;102146.41;;;23.96;45.93
39275;BME280;24980;48.874;2.332;2023-02-19T04:43:12;102146.91;;;23.95;45.90
39275;BME280;24980;48.874;2.332;2023-02-19T04:45:41;102151.83;;;23.96;45.89
39275;BME280;24980;48.874;2.332;2023-02-19T04:48:11;102150.30;;;23.96;45.88
39275;BME280;24980;48.874;2.332;2023-02-19T04:50:42;102152.16;;;23.95;45.87
39275;BME280;24980;48.874;2.332;2023-02-19T04:53:12;102150.33;;;23.95;45.87
39275;BME280;24980;48.874;2.332;2023-02-19T04:55:43;102156.50;;;23.95;45.87
39275;BME280;24980;48.874;2.332;2023-02-19T04:58:13;102157.35;;;23.95;45.87
39275;BME280;24980;48.874;2.332;2023-02-19T05:00:44;102165.62;;;23.96;45.86
39275;BME280;24980;48.874;2.332;2023-02-19T05:03:14;102175.20;;;23.95;45.86
39275;BME280;24980;48.874;2.332;2023-02-19T05:05:47;102180.22;;;23.94;45.87
39275;BME280;24980;48.874;2.332;2023-02-19T05:10:46;102174.62;;;23.95;45.86
39275;BME280;24980;48.874;2.332;2023-02-19T05:13:17;102172.51;;;23.94;45.86
39275;BME280;24980;48.874;2.332;2023-02-19T05:15:54;102175.97;;;23.94;45.87
39275;BME280;24980;48.874;2.332;2023-02-19T05:18:17;102177.92;;;23.93;45.87
39275;BME280;24980;48.874;2.332;2023-02-19T05:20:49;102180.29;;;23.93;45.84
39275;BME280;24980;48.874;2.332;2023-02-19T05:23:19;102189.01;;;23.93;45.83
39275;BME280;24980;48.874;2.332;2023-02-19T05:25:49;102191.72;;;23.93;45.82
39275;BME280;24980;48.874;2.332;2023-02-19T05:28:20;102191.63;;;23.93;45.81
39275;BME280;24980;48.874;2.332;2023-02-19T05:30:51;102193.08;;;23.94;45.81
39275;BME280;24980;48.874;2.332;2023-02-19T05:33:26;102196.89;;;23.94;45.80
39275;BME280;24980;48.874;2.332;2023-02-19T05:35:54;102200.03;;;23.94;45.80
39275;BME280;24980;48.874;2.332;2023-02-19T05:38:23;102204.18;;;23.94;45.80
39275;BME280;24980;48.874;2.332;2023-02-19T05:40:53;102205.78;;;23.94;45.80
39275;BME280;24980;48.874;2.332;2023-02-19T05:43:24;102209.94;;;23.94;45.80
39275;BME280;24980;48.874;2.332;2023-02-19T05:45:57;102205.62;;;23.94;45.79
39275;BME280;24980;48.874;2.332;2023-02-19T05:48:25;102206.38;;;23.94;45.79
39275;BME280;24980;48.874;2.332;2023-02-19T05:51:01;102206.28;;;23.93;45.79
39275;BME280;24980;48.874;2.332;2023-02-19T05:53:26;102208.65;;;23.93;45.80
39275;BME280;24980;48.874;2.332;2023-02-19T05:55:58;102212.97;;;23.93;45.80
39275;BME280;24980;48.874;2.332;2023-02-19T05:58:27;102217.55;;;23.93;45.80
39275;BME280;24980;48.874;2.332;2023-02-19T06:00:57;102210.09;;;23.93;45.80
39275;BME280;24980;48.874;2.332;2023-02-19T06:03:28;102213.98;;;23.93;45.80
39275;BME280;24980;48.874;2.332;2023-02-19T06:05:59;102214.16;;;23.93;45.80
39275;BME280;24980;48.874;2.332;2023-02-19T06:08:29;102214.08;;;23.93;45.80
39275;BME280;24980;48.874;2.332;2023-02-19T06:11:00;102218.23;;;23.93;45.81
39275;BME280;24980;48.874;2.332;2023-02-19T06:13:30;102219.24;;;23.93;45.81
39275;BME280;24980;48.874;2.332;2023-02-19T06:16:04;102217.03;;;23.93;45.81
39275;BME280;24980;48.874;2.332;2023-02-19T06:18:32;102218.56;;;23.93;45.82
39275;BME280;24980;48.874;2.332;2023-02-19T06:21:07;102211.70;;;23.93;45.82
39275;BME280;24980;48.874;2.332;2023-02-19T06:23:32;102214.83;;;23.92;45.83
39275;BME280;24980;48.874;2.332;2023-02-19T06:26:15;102215.59;;;23.93;45.82
39275;BME280;24980;48.874;2.332;2023-02-19T06:28:33;102217.62;;;23.92;45.82
39275;BME280;24980;48.874;2.332;2023-02-19T06:31:04;102223.05;;;23.93;45.80
39275;BME280;24980;48.874;2.332;2023-02-19T06:33:35;102230.59;;;23.94;45.81
39275;BME280;24980;48.874;2.332;2023-02-19T06:36:05;102224.83;;;23.93;45.81
39275;BME280;24980;48.874;2.332;2023-02-19T06:38:34;102227.88;;;23.93;45.81
39275;BME280;24980;48.874;2.332;2023-02-19T06:41:06;102231.44;;;23.93;45.81
39275;BME280;24980;48.874;2.332;2023-02-19T06:43:35;102233.38;;;23.93;45.81
39275;BME280;24980;48.874;2.332;2023-02-19T06:46:07;102242.53;;;23.93;45.81
39275;BME280;24980;48.874;2.332;2023-02-19T06:48:38;102249.81;;;23.94;45.80
39275;BME280;24980;48.874;2.332;2023-02-19T06:51:08;102247.28;;;23.94;45.79
39275;BME280;24980;48.874;2.332;2023-02-19T06:53:37;102248.20;;;23.93;45.81
39275;BME280;24980;48.874;2.332;2023-02-19T06:56:24;102246.25;;;23.93;45.81
39275;BME280;24980;48.874;2.332;2023-02-19T06:58:38;102234.73;;;23.93;45.80
39275;BME280;24980;48.874;2.332;2023-02-19T07:01:10;102248.03;;;23.92;45.80
39275;BME280;24980;48.874;2.332;2023-02-19T07:03:39;102259.06;;;23.92;45.80
39275;BME280;24980;48.874;2.332;2023-02-19T07:06:10;102265.75;;;23.92;45.80
39275;BME280;24980;48.874;2.332;2023-02-19T07:08:40;102272.01;;;23.91;45.81
39275;BME280;24980;48.874;2.332;2023-02-19T07:11:11;102274.55;;;23.92;45.81
39275;BME280;24980;48.874;2.332;2023-02-19T07:13:42;102273.37;;;23.92;45.82
39275;BME280;24980;48.874;2.332;2023-02-19T07:16:13;102277.34;;;23.91;45.82
39275;BME280;24980;48.874;2.332;2023-02-19T07:18:42;102277.77;;;23.92;45.81
39275;BME280;24980;48.874;2.332;2023-02-19T07:21:14;102275.32;;;23.92;45.80
39275;BME280;24980;48.874;2.332;2023-02-19T07:23:44;102280.82;;;23.92;45.80
39275;BME280;24980;48.874;2.332;2023-02-19T07:26:15;102292.48;;;23.93;45.79
39275;BME280;24980;48.874;2.332;2023-02-19T07:28:46;102289.62;;;23.92;45.79
39275;BME280;24980;48.874;2.332;2023-02-19T07:31:15;102291.91;;;23.91;45.80
39275;BME280;24980;48.874;2.332;2023-02-19T07:33:45;102296.80;;;23.90;45.81
39275;BME280;24980;48.874;2.332;2023-02-19T07:36:16;102301.31;;;23.88;45.82
39275;BME280;24980;48.874;2.332;2023-02-19T07:38:45;102307.14;;;23.88;45.83
39275;BME280;24980;48.874;2.332;2023-02-19T07:41:16;102306.38;;;23.87;45.84
39275;BME280;24980;48.874;2.332;2023-02-19T07:43:46;102314.50;;;23.87;45.84
39275;BME280;24980;48.874;2.332;2023-02-19T07:46:17;102308.66;;;23.87;45.84
39275;BME280;24980;48.874;2.332;2023-02-19T07:48:47;102307.72;;;23.86;45.84
39275;BME280;24980;48.874;2.332;2023-02-19T07:51:21;102308.31;;;23.86;45.85
39275;BME280;24980;48.874;2.332;2023-02-19T07:53:48;102317.70;;;23.86;45.86
39275;BME280;24980;48.874;2.332;2023-02-19T07:56:19;102317.39;;;23.85;45.84
39275;BME280;24980;48.874;2.332;2023-02-19T07:58:48;102315.88;;;23.85;45.84
39275;BME280;24980;48.874;2.332;2023-02-19T08:01:21;102323.98;;;23.84;45.82
39275;BME280;24980;48.874;2.332;2023-02-19T08:03:49;102330.59;;;23.84;45.81
39275;BME280;24980;48.874;2.332;2023-02-19T08:06:20;102329.66;;;23.84;45.80
39275;BME280;24980;48.874;2.332;2023-02-19T08:08:50;102335.39;;;23.83;45.79
39275;BME280;24980;48.874;2.332;2023-02-19T08:11:23;102336.09;;;23.82;45.79
39275;BME280;24980;48.874;2.332;2023-02-19T08:13:51;102337.45;;;23.82;45.78
39275;BME280;24980;48.874;2.332;2023-02-19T08:16:21;102338.47;;;23.82;45.75
39275;BME280;24980;48.874;2.332;2023-02-19T08:18:51;102339.31;;;23.82;45.74
39275;BME280;24980;48.874;2.332;2023-02-19T08:21:22;102332.95;;;23.81;45.73
39275;BME280;24980;48.874;2.332;2023-02-19T08:23:52;102338.28;;;23.81;45.71
39275;BME280;24980;48.874;2.332;2023-02-19T08:26:23;102341.34;;;23.82;45.69
39275;BME280;24980;48.874;2.332;2023-02-19T08:28:53;102342.27;;;23.81;45.69
39275;BME280;24980;48.874;2.332;2023-02-19T08:31:24;102342.86;;;23.81;45.67
39275;BME280;24980;48.874;2.332;2023-02-19T08:33:54;102347.17;;;23.80;45.67
39275;BME280;24980;48.874;2.332;2023-02-19T08:36:25;102342.86;;;23.81;45.66
39275;BME280;24980;48.874;2.332;2023-02-19T08:38:55;102344.29;;;23.80;45.64
39275;BME280;24980;48.874;2.332;2023-02-19T08:41:26;102345.63;;;23.79;45.64
39275;BME280;24980;48.874;2.332;2023-02-19T08:44:01;102345.71;;;23.79;45.63
39275;BME280;24980;48.874;2.332;2023-02-19T08:46:26;102345.66;;;23.78;45.63
39275;BME280;24980;48.874;2.332;2023-02-19T08:48:57;102342.52;;;23.78;45.63
39275;BME280;24980;48.874;2.332;2023-02-19T08:51:27;102343.68;;;23.79;45.60
39275;BME280;24980;48.874;2.332;2023-02-19T08:53:57;102346.73;;;23.79;45.60
39275;BME280;24980;48.874;2.332;2023-02-19T08:56:28;102344.70;;;23.79;45.58
39275;BME280;24980;48.874;2.332;2023-02-19T08:58:59;102349.19;;;23.79;45.57
39275;BME280;24980;48.874;2.332;2023-02-19T09:01:28;102349.27;;;23.79;45.56
39275;BME280;24980;48.874;2.332;2023-02-19T09:03:59;102352.06;;;23.79;45.55
39275;BME280;24980;48.874;2.332;2023-02-19T09:06:29;102352.91;;;23.79;45.55
39275;BME280;24980;48.874;2.332;2023-02-19T09:08:59;102355.11;;;23.79;45.55
39275;BME280;24980;48.874;2.332;2023-02-19T09:11:30;102351.30;;;23.79;45.54
39275;BME280;24980;48.874;2.332;2023-02-19T09:14:00;102354.62;;;23.78;45.53
39275;BME280;24980;48.874;2.332;2023-02-19T09:16:31;102365.55;;;23.78;45.53
39275;BME280;24980;48.874;2.332;2023-02-19T09:19:02;102362.15;;;23.78;45.51
39275;BME280;24980;48.874;2.332;2023-02-19T09:21:35;102366.12;;;23.77;45.51
39275;BME280;24980;48.874;2.332;2023-02-19T09:24:02;102362.23;;;23.77;45.49
39275;BME280;24980;48.874;2.332;2023-02-19T09:26:32;102368.33;;;23.77;45.48
39275;BME280;24980;48.874;2.332;2023-02-19T09:29:03;102367.89;;;23.77;45.46
39275;BME280;24980;48.874;2.332;2023-02-19T09:31:33;102365.11;;;23.77;45.46
39275;BME280;24980;48.874;2.332;2023-02-19T09:34:04;102365.79;;;23.77;45.45
39275;BME280;24980;48.874;2.332;2023-02-19T09:36:34;102370.36;;;23.78;45.43
39275;BME280;24980;48.874;2.332;2023-02-19T09:39:07;102365.80;;;23.78;45.42
39275;BME280;24980;48.874;2.332;2023-02-19T09:41:38;102366.40;;;23.79;45.42
39275;BME280;24980;48.874;2.332;2023-02-19T09:44:09;102365.55;;;23.78;45.42
39275;BME280;24980;48.874;2.332;2023-02-19T09:46:46;102377.41;;;23.79;45.42
39275;BME280;24980;48.874;2.332;2023-02-19T09:49:14;102373.26;;;23.79;45.40
39275;BME280;24980;48.874;2.332;2023-02-19T09:51:41;102366.05;;;23.78;45.40
39275;BME280;24980;48.874;2.332;2023-02-19T09:54:18;102366.98;;;23.78;45.40
39275;BME280;24980;48.874;2.332;2023-02-19T09:56:39;102367.50;;;23.79;45.39
39275;BME280;24980;48.874;2.332;2023-02-19T09:59:22;102368.17;;;23.80;45.38
39275;BME280;24980;48.874;2.332;2023-02-19T10:01:41;102381.73;;;23.82;45.37
39275;BME280;24980;48.874;2.332;2023-02-19T10:04:10;102388.50;;;23.84;45.37
39275;BME280;24980;48.874;2.332;2023-02-19T10:06:41;102388.52;;;23.85;45.40
39275;BME280;24980;48.874;2.332;2023-02-19T10:09:20;102378.36;;;23.85;45.42
39275;BME280;24980;48.874;2.332;2023-02-19T10:11:42;102381.41;;;23.85;45.45
39275;BME280;24980;48.874;2.332;2023-02-19T10:14:16;102383.69;;;23.85;45.48
39275;BME280;24980;48.874;2.332;2023-02-19T10:16:44;102396.22;;;23.85;45.51
39275;BME280;24980;48.874;2.332;2023-02-19T10:19:13;102402.23;;;23.85;45.53
39275;BME280;24980;48.874;2.332;2023-02-19T10:21:43;102396.20;;;23.86;45.54
39275;BME280;24980;48.874;2.332;2023-02-19T10:24:24;102398.00;;;23.85;45.55
39275;BME280;24980;48.874;2.332;2023-02-19T10:26:45;102402.23;;;23.85;45.57
39275;BME280;24980;48.874;2.332;2023-02-19T10:29:14;102405.03;;;23.85;45.58
39275;BME280;24980;48.874;2.332;2023-02-19T10:31:45;102403.67;;;23.85;45.59
39275;BME280;24980;48.874;2.332;2023-02-19T10:34:21;102407.71;;;23.86;45.58
39275;BME280;24980;48.874;2.332;2023-02-19T10:36:46;102412.57;;;23.85;45.59
39275;BME280;24980;48.874;2.332;2023-02-19T10:39:34;102416.45;;;23.87;45.59
39275;BME280;24980;48.874;2.332;2023-02-19T10:41:47;102420.01;;;23.87;45.58
39275;BME280;24980;48.874;2.332;2023-02-19T10:44:25;102429.84;;;23.87;45.57
39275;BME280;24980;48.874;2.332;2023-02-19T10:46:49;102431.20;;;23.88;45.57
39275;BME280;24980;48.874;2.332;2023-02-19T10:49:23;102419.61;;;23.88;45.57
39275;BME280;24980;48.874;2.332;2023-02-19T10:51:48;102427.05;;;23.90;45.57
39275;BME280;24980;48.874;2.332;2023-02-19T10:54:32;102440.61;;;23.91;45.57
39275;BME280;24980;48.874;2.332;2023-02-19T10:56:49;102455.77;;;23.91;45.58
39275;BME280;24980;48.874;2.332;2023-02-19T10:59:29;102451.03;;;23.91;45.57
39275;BME280;24980;48.874;2.332;2023-02-19T11:02:17;102453.22;;;23.91;45.58
39275;BME280;24980;48.874;2.332;2023-02-19T11:04:21;102460.23;;;23.89;45.58
39275;BME280;24980;48.874;2.332;2023-02-19T11:06:51;102458.11;;;23.89;45.58
39275;BME280;24980;48.874;2.332;2023-02-19T11:09:37;102453.39;;;23.88;45.59
39275;BME280;24980;48.874;2.332;2023-02-19T11:11:53;102459.55;;;23.87;45.61
39275;BME280;24980;48.874;2.332;2023-02-19T11:14:24;102446.50;;;23.86;45.61
39275;BME280;24980;48.874;2.332;2023-02-19T11:16:57;102452.94;;;23.86;45.60
39275;BME280;24980;48.874;2.332;2023-02-19T11:19:28;102449.97;;;23.86;45.57
39275;BME280;24980;48.874;2.332;2023-02-19T11:21:55;102457.27;;;23.85;45.55
39275;BME280;24980;48.874;2.332;2023-02-19T11:24:29;102449.97;;;23.84;45.53
39275;BME280;24980;48.874;2.332;2023-02-19T11:26:57;102466.98;;;23.83;45.51
39275;BME280;24980;48.874;2.332;2023-02-19T11:29:26;102461.56;;;23.83;45.48
39275;BME280;24980;48.874;2.332;2023-02-19T11:34:28;102449.28;;;23.82;45.45
39275;BME280;24980;48.874;2.332;2023-02-19T11:37:21;102460.39;;;23.82;45.42
39275;BME280;24980;48.874;2.332;2023-02-19T11:39:30;102464.86;;;23.82;45.39
39275;BME280;24980;48.874;2.332;2023-02-19T11:42:29;102467.33;;;23.81;45.38
39275;BME280;24980;48.874;2.332;2023-02-19T11:49:58;102464.44;;;23.78;45.34
39275;BME280;24980;48.874;2.332;2023-02-19T11:54:44;102479.48;;;23.77;45.31
39275;BME280;24980;48.874;2.332;2023-02-19T11:57:40;102461.86;;;23.76;45.30
39275;BME280;24980;48.874;2.332;2023-02-19T11:59:47;102461.88;;;23.75;45.29
39275;BME280;24980;48.874;2.332;2023-02-19T12:02:26;102454.67;;;23.74;45.26
39275;BME280;24980;48.874;2.332;2023-02-19T12:07:31;102459.07;;;23.72;45.21
39275;BME280;24980;48.874;2.332;2023-02-19T12:09:42;102460.67;;;23.72;45.18
39275;BME280;24980;48.874;2.332;2023-02-19T12:12:22;102460.50;;;23.71;45.16
39275;BME280;24980;48.874;2.332;2023-02-19T12:22:21;102470.39;;;23.68;45.02
39275;BME280;24980;48.874;2.332;2023-02-19T12:30:10;102450.56;;;23.67;44.96
39275;BME280;24980;48.874;2.332;2023-02-19T12:37:24;102455.40;;;23.68;44.97
39275;BME280;24980;48.874;2.332;2023-02-19T12:40:13;102440.50;;;23.68;44.97
39275;BME280;24980;48.874;2.332;2023-02-19T12:42:50;102448.47;;;23.69;44.98
39275;BME280;24980;48.874;2.332;2023-02-19T12:44:53;102448.48;;;23.69;44.99
39275;BME280;24980;48.874;2.332;2023-02-19T12:47:20;102448.03;;;23.70;45.00
39275;BME280;24980;48.874;2.332;2023-02-19T12:52:21;102450.08;;;23.73;45.01
39275;BME280;24980;48.874;2.332;2023-02-19T12:54:49;102450.44;;;23.76;45.01
39275;BME280;24980;48.874;2.332;2023-02-19T12:57:28;102443.36;;;23.78;45.02
39275;BME280;24980;48.874;2.332;2023-02-19T12:59:52;102444.38;;;23.81;45.04
39275;BME280;24980;48.874;2.332;2023-02-19T13:02:37;102433.46;;;23.84;45.07
39275;BME280;24980;48.874;2.332;2023-02-19T13:05:04;102428.05;;;23.84;45.12
39275;BME280;24980;48.874;2.332;2023-02-19T13:07:24;102426.17;;;23.86;45.15
39275;BME280;24980;48.874;2.332;2023-02-19T13:09:59;102429.14;;;23.86;45.16
39275;BME280;24980;48.874;2.332;2023-02-19T13:12:33;102421.44;;;23.86;45.16
39275;BME280;24980;48.874;2.332;2023-02-19T13:15:08;102417.12;;;23.86;45.14
39275;BME280;24980;48.874;2.332;2023-02-19T13:19:55;102411.62;;;23.84;45.07
39275;BME280;24980;48.874;2.332;2023-02-19T13:22:30;102400.02;;;23.83;45.01
39275;BME280;24980;48.874;2.332;2023-02-19T13:24:54;102404.76;;;23.84;44.97
39275;BME280;24980;48.874;2.332;2023-02-19T13:27:43;102400.88;;;23.85;44.92
39275;BME280;24980;48.874;2.332;2023-02-19T13:30:11;102404.93;;;23.86;44.92
39275;BME280;24980;48.874;2.332;2023-02-19T13:37:25;102401.16;;;23.92;44.98
39275;BME280;24980;48.874;2.332;2023-02-19T13:39:57;102391.77;;;23.95;45.00
39275;BME280;24980;48.874;2.332;2023-02-19T13:42:35;102396.09;;;23.98;45.04
39275;BME280;24980;48.874;2.332;2023-02-19T13:44:57;102391.95;;;24.01;45.08
39275;BME280;24980;48.874;2.332;2023-02-19T13:50:05;102373.31;;;24.01;45.16
39275;BME280;24980;48.874;2.332;2023-02-19T13:52:33;102375.02;;;24.01;45.18
39275;BME280;24980;48.874;2.332;2023-02-19T13:57:29;102361.45;;;24.00;45.19
39275;BME280;24980;48.874;2.332;2023-02-19T13:59:59;102354.15;;;23.99;45.19
39275;BME280;24980;48.874;2.332;2023-02-19T14:02:31;102343.92;;;23.98;45.20
39275;BME280;24980;48.874;2.332;2023-02-19T14:05:05;102345.61;;;23.97;45.21
39275;BME280;24980;48.874;2.332;2023-02-19T14:07:48;102339.25;;;23.97;45.18
39275;BME280;24980;48.874;2.332;2023-02-19T14:10:02;102344.15;;;23.96;45.18
39275;BME280;24980;48.874;2.332;2023-02-19T14:12:34;102347.64;;;23.95;45.17